sensor_id;sensor_type;location;lat;lon;timestamp;pressure;altitude;pressure_sealevel;temperature;humidity
5283;BME280;15376;48.540;9.268;2023-08-07T00:01:30;97386.50;;;10.78;100.00
5283;BME280;15376;48.540;9.268;2023-08-07T00:03:55;97399.72;;;10.92;100.00
5283;BME280;15376;48.540;9.268;2023-08-07T00:06:20;97395.16;;;10.86;100.00
5283;BME280;15376;48.540;9.268;2023-08-07T00:08:46;97402.19;;;10.94;100.00
5283;BME280;15376;48.540;9.268;2023-08-07T00:11:11;97393.13;;;10.88;100.00
5283;BME280;15376;48.540;9.268;2023-08-07T00:13:36;97405.50;;;10.96;100.00
5283;BME280;15376;48.540;9.268;2023-08-07T00:16:02;97387.94;;;10.80;100.00
5283;BME280;15376;48.540;9.268;2023-08-07T00:18:29;97405.41;;;10.89;100.00
5283;BME280;15376;48.540;9.268;2023-08-07T00:20:54;97406.69;;;10.93;100.00
5283;BME280;15376;48.540;9.268;2023-08-07T00:23:20;97405.41;;;10.89;100.00
5283;BME280;15376;48.540;9.268;2023-08-07T00:25:45;97406.25;;;10.90;100.00
5283;BME280;15376;48.540;9.268;2023-08-07T00:28:11;97395.53;;;10.83;100.00
5283;BME280;15376;48.540;9.268;2023-08-07T00:30:36;97407.44;;;10.87;100.00
5283;BME280;15376;48.540;9.268;2023-08-07T00:33:01;97402.94;;;10.88;100.00
5283;BME280;15376;48.540;9.268;2023-08-07T00:35:28;97394.06;;;10.81;100.00
5283;BME280;15376;48.540;9.268;2023-08-07T00:37:53;97384.84;;;10.77;100.00
5283;BME280;15376;48.540;9.268;2023-08-07T00:40:18;97385.22;;;10.74;100.00
5283;BME280;15376;48.540;9.268;2023-08-07T00:42:44;97388.97;;;10.79;100.00
5283;BME280;15376;48.540;9.268;2023-08-07T00:45:09;97399.28;;;10.89;100.00
5283;BME280;15376;48.540;9.268;2023-08-07T00:47:35;97398.63;;;10.87;100.00
5283;BME280;15376;48.540;9.268;2023-08-07T00:50:03;97358.41;;;10.54;100.00
5283;BME280;15376;48.540;9.268;2023-08-07T00:52:30;97407.16;;;10.82;100.00
5283;BME280;15376;48.540;9.268;2023-08-07T00:54:56;97385.97;;;10.67;100.00
5283;BME280;15376;48.540;9.268;2023-08-07T00:57:21;97383.50;;;10.66;100.00
5283;BME280;15376;48.540;9.268;2023-08-07T00:59:48;97413.47;;;10.81;100.00
5283;BME280;15376;48.540;9.268;2023-08-07T01:02:14;97411.00;;;10.80;100.00
5283;BME280;15376;48.540;9.268;2023-08-07T01:04:40;97398.41;;;10.67;100.00
5283;BME280;15376;48.540;9.268;2023-08-07T01:07:06;97401.97;;;10.74;100.00
5283;BME280;15376;48.540;9.268;2023-08-07T01:09:31;97400.69;;;10.70;100.00
5283;BME280;15376;48.540;9.268;2023-08-07T01:12:07;97367.47;;;10.45;100.00
5283;BME280;15376;48.540;9.268;2023-08-07T01:14:41;97406.75;;;10.64;100.00
5283;BME280;15376;48.540;9.268;2023-08-07T01:17:15;97409.22;;;10.65;100.00
5283;BME280;15376;48.540;9.268;2023-08-07T01:19:41;97422.50;;;10.65;100.00
5283;BME280;15376;48.540;9.268;2023-08-07T01:22:12;97417.38;;;10.64;100.00
5283;BME280;15376;48.540;9.268;2023-08-07T01:24:39;97421.78;;;10.57;100.00
5283;BME280;15376;48.540;9.268;2023-08-07T01:29:47;97421.13;;;10.55;100.00
5283;BME280;15376;48.540;9.268;2023-08-07T01:35:01;97424.97;;;10.52;100.00
5283;BME280;15376;48.540;9.268;2023-08-07T01:37:29;97416.75;;;10.47;100.00
5283;BME280;15376;48.540;9.268;2023-08-07T01:39:58;97409.50;;;10.41;100.00
5283;BME280;15376;48.540;9.268;2023-08-07T01:42:24;97427.63;;;10.52;100.00
5283;BME280;15376;48.540;9.268;2023-08-07T01:44:49;97426.16;;;10.50;100.00
5283;BME280;15376;48.540;9.268;2023-08-07T01:47:15;97428.91;;;10.56;100.00
5283;BME280;15376;48.540;9.268;2023-08-07T01:49:40;97439.34;;;10.58;100.00
5283;BME280;15376;48.540;9.268;2023-08-07T01:52:07;97432.94;;;10.52;100.00
5283;BME280;15376;48.540;9.268;2023-08-07T01:54:32;97436.78;;;10.50;100.00
5283;BME280;15376;48.540;9.268;2023-08-07T01:56:58;97416.63;;;10.41;100.00
5283;BME280;15376;48.540;9.268;2023-08-07T01:59:23;97435.78;;;10.51;100.00
5283;BME280;15376;48.540;9.268;2023-08-07T02:01:48;97439.16;;;10.45;100.00
5283;BME280;15376;48.540;9.268;2023-08-07T02:04:14;97451.88;;;10.49;100.00
5283;BME280;15376;48.540;9.268;2023-08-07T02:06:39;97407.06;;;10.25;100.00
5283;BME280;15376;48.540;9.268;2023-08-07T02:09:05;97430.50;;;10.36;100.00
5283;BME280;15376;48.540;9.268;2023-08-07T02:11:30;97437.28;;;10.39;100.00
5283;BME280;15376;48.540;9.268;2023-08-07T02:13:55;97409.25;;;10.21;100.00
5283;BME280;15376;48.540;9.268;2023-08-07T02:16:21;97441.34;;;10.41;100.00
5283;BME280;15376;48.540;9.268;2023-08-07T02:18:46;97456.75;;;10.46;100.00
5283;BME280;15376;48.540;9.268;2023-08-07T02:21:11;97430.03;;;10.32;100.00
5283;BME280;15376;48.540;9.268;2023-08-07T02:23:37;97446.31;;;10.44;100.00
5283;BME280;15376;48.540;9.268;2023-08-07T02:26:02;97460.50;;;10.51;100.00
5283;BME280;15376;48.540;9.268;2023-08-07T02:28:27;97457.09;;;10.43;100.00
5283;BME280;15376;48.540;9.268;2023-08-07T02:30:53;97466.63;;;10.52;100.00
5283;BME280;15376;48.540;9.268;2023-08-07T02:33:19;97442.13;;;10.35;100.00
5283;BME280;15376;48.540;9.268;2023-08-07T02:35:44;97448.13;;;10.44;100.00
5283;BME280;15376;48.540;9.268;2023-08-07T02:38:10;97430.84;;;10.33;100.00
5283;BME280;15376;48.540;9.268;2023-08-07T02:40:36;97450.44;;;10.47;100.00
5283;BME280;15376;48.540;9.268;2023-08-07T02:43:01;97459.56;;;10.44;100.00
5283;BME280;15376;48.540;9.268;2023-08-07T02:45:29;97433.69;;;10.31;100.00
5283;BME280;15376;48.540;9.268;2023-08-07T02:47:54;97440.53;;;10.41;100.00
5283;BME280;15376;48.540;9.268;2023-08-07T02:50:20;97446.97;;;10.31;100.00
5283;BME280;15376;48.540;9.268;2023-08-07T02:52:45;97458.75;;;10.44;100.00
5283;BME280;15376;48.540;9.268;2023-08-07T02:55:11;97447.59;;;10.33;100.00
5283;BME280;15376;48.540;9.268;2023-08-07T02:57:36;97475.59;;;10.51;100.00
5283;BME280;15376;48.540;9.268;2023-08-07T03:00:01;97467.91;;;10.56;100.00
5283;BME280;15376;48.540;9.268;2023-08-07T03:02:27;97427.09;;;10.27;100.00
5283;BME280;15376;48.540;9.268;2023-08-07T03:04:53;97480.28;;;10.63;100.00
5283;BME280;15376;48.540;9.268;2023-08-07T03:07:19;97474.50;;;10.60;100.00
5283;BME280;15376;48.540;9.268;2023-08-07T03:09:47;97465.72;;;10.59;100.00
5283;BME280;15376;48.540;9.268;2023-08-07T03:12:13;97448.22;;;10.50;100.00
5283;BME280;15376;48.540;9.268;2023-08-07T03:14:38;97467.47;;;10.67;100.00
5283;BME280;15376;48.540;9.268;2023-08-07T03:17:04;97457.03;;;10.51;100.00
5283;BME280;15376;48.540;9.268;2023-08-07T03:19:29;97478.19;;;10.59;100.00
5283;BME280;15376;48.540;9.268;2023-08-07T03:21:55;97477.72;;;10.55;100.00
5283;BME280;15376;48.540;9.268;2023-08-07T03:24:20;97459.75;;;10.43;100.00
5283;BME280;15376;48.540;9.268;2023-08-07T03:26:45;97493.94;;;10.60;100.00
5283;BME280;15376;48.540;9.268;2023-08-07T03:29:12;97497.41;;;10.61;100.00
5283;BME280;15376;48.540;9.268;2023-08-07T03:31:38;97468.19;;;10.46;100.00
5283;BME280;15376;48.540;9.268;2023-08-07T03:34:03;97471.84;;;10.45;100.00
5283;BME280;15376;48.540;9.268;2023-08-07T03:36:28;97469.00;;;10.47;100.00
5283;BME280;15376;48.540;9.268;2023-08-07T03:38:54;97490.44;;;10.60;100.00
5283;BME280;15376;48.540;9.268;2023-08-07T03:41:19;97468.53;;;10.43;100.00
5283;BME280;15376;48.540;9.268;2023-08-07T03:43:44;97466.47;;;10.39;100.00
5283;BME280;15376;48.540;9.268;2023-08-07T03:46:10;97496.47;;;10.54;100.00
5283;BME280;15376;48.540;9.268;2023-08-07T03:48:35;97500.50;;;10.50;100.00
5283;BME280;15376;48.540;9.268;2023-08-07T03:51:05;97495.56;;;10.47;100.00
5283;BME280;15376;48.540;9.268;2023-08-07T03:53:30;97495.75;;;10.45;100.00
5283;BME280;15376;48.540;9.268;2023-08-07T03:55:55;97490.53;;;10.37;100.00
5283;BME280;15376;48.540;9.268;2023-08-07T03:58:21;97468.72;;;10.27;100.00
5283;BME280;15376;48.540;9.268;2023-08-07T04:00:46;97464.63;;;10.24;100.00
5283;BME280;15376;48.540;9.268;2023-08-07T04:03:12;97518.19;;;10.57;100.00
5283;BME280;15376;48.540;9.268;2023-08-07T04:05:37;97491.91;;;10.48;100.00
5283;BME280;15376;48.540;9.268;2023-08-07T04:08:02;97508.41;;;10.58;100.00
5283;BME280;15376;48.540;9.268;2023-08-07T04:10:28;97498.50;;;10.52;100.00
5283;BME280;15376;48.540;9.268;2023-08-07T04:12:53;97469.84;;;10.32;100.00
5283;BME280;15376;48.540;9.268;2023-08-07T04:15:18;97505.47;;;10.53;100.00
5283;BME280;15376;48.540;9.268;2023-08-07T04:17:44;97498.50;;;10.52;100.00
5283;BME280;15376;48.540;9.268;2023-08-07T04:20:09;97512.88;;;10.57;100.00
5283;BME280;15376;48.540;9.268;2023-08-07T04:22:35;97514.34;;;10.60;100.00
5283;BME280;15376;48.540;9.268;2023-08-07T04:25:01;97497.50;;;10.53;100.00
5283;BME280;15376;48.540;9.268;2023-08-07T04:27:26;97503.09;;;10.58;100.00
5283;BME280;15376;48.540;9.268;2023-08-07T04:29:52;97504.28;;;10.55;100.00
5283;BME280;15376;48.540;9.268;2023-08-07T04:32:17;97512.88;;;10.57;100.00
5283;BME280;15376;48.540;9.268;2023-08-07T04:34:43;97481.00;;;10.43;100.00
5283;BME280;15376;48.540;9.268;2023-08-07T04:37:08;97488.69;;;10.52;100.00
5283;BME280;15376;48.540;9.268;2023-08-07T04:39:33;97510.03;;;10.59;100.00
5283;BME280;15376;48.540;9.268;2023-08-07T04:41:59;97485.66;;;10.41;100.00
5283;BME280;15376;48.540;9.268;2023-08-07T04:44:24;97511.41;;;10.55;100.00
5283;BME280;15376;48.540;9.268;2023-08-07T04:46:50;97516.25;;;10.51;100.00
5283;BME280;15376;48.540;9.268;2023-08-07T04:49:15;97488.44;;;10.32;100.00
5283;BME280;15376;48.540;9.268;2023-08-07T04:51:40;97504.00;;;10.35;100.00
5283;BME280;15376;48.540;9.268;2023-08-07T04:54:06;97480.81;;;10.29;100.00
5283;BME280;15376;48.540;9.268;2023-08-07T04:56:31;97494.56;;;10.33;100.00
5283;BME280;15376;48.540;9.268;2023-08-07T04:58:56;97508.53;;;10.42;100.00
5283;BME280;15376;48.540;9.268;2023-08-07T05:01:22;97511.94;;;10.35;100.00
5283;BME280;15376;48.540;9.268;2023-08-07T05:03:47;97524.13;;;10.45;100.00
5283;BME280;15376;48.540;9.268;2023-08-07T05:06:12;97493.81;;;10.24;100.00
5283;BME280;15376;48.540;9.268;2023-08-07T05:08:38;97525.78;;;10.46;100.00
5283;BME280;15376;48.540;9.268;2023-08-07T05:11:03;97520.81;;;10.43;100.00
5283;BME280;15376;48.540;9.268;2023-08-07T05:13:29;97516.44;;;10.50;100.00
5283;BME280;15376;48.540;9.268;2023-08-07T05:15:54;97513.78;;;10.50;100.00
5283;BME280;15376;48.540;9.268;2023-08-07T05:18:19;97491.63;;;10.43;100.00
5283;BME280;15376;48.540;9.268;2023-08-07T05:20:45;97524.59;;;10.63;100.00
5283;BME280;15376;48.540;9.268;2023-08-07T05:23:10;97521.31;;;10.61;100.00
5283;BME280;15376;48.540;9.268;2023-08-07T05:25:36;97520.47;;;10.60;100.00
5283;BME280;15376;48.540;9.268;2023-08-07T05:28:02;97526.25;;;10.64;100.00
5283;BME280;15376;48.540;9.268;2023-08-07T05:30:28;97500.88;;;10.47;100.00
5283;BME280;15376;48.540;9.268;2023-08-07T05:32:53;97524.78;;;10.61;100.00
5283;BME280;15376;48.540;9.268;2023-08-07T05:35:18;97534.50;;;10.69;100.00
5283;BME280;15376;48.540;9.268;2023-08-07T05:37:44;97512.69;;;10.59;100.00
5283;BME280;15376;48.540;9.268;2023-08-07T05:40:09;97536.31;;;10.83;100.00
5283;BME280;15376;48.540;9.268;2023-08-07T05:42:37;97517.19;;;10.73;100.00
5283;BME280;15376;48.540;9.268;2023-08-07T05:45:03;97542.09;;;11.01;100.00
5283;BME280;15376;48.540;9.268;2023-08-07T05:47:29;97531.56;;;11.08;100.00
5283;BME280;15376;48.540;9.268;2023-08-07T05:49:54;97513.78;;;11.09;100.00
5283;BME280;15376;48.540;9.268;2023-08-07T05:52:19;97531.34;;;11.24;100.00
5283;BME280;15376;48.540;9.268;2023-08-07T05:54:45;97517.88;;;11.26;100.00
5283;BME280;15376;48.540;9.268;2023-08-07T05:57:11;97549.19;;;11.45;100.00
5283;BME280;15376;48.540;9.268;2023-08-07T05:59:36;97541.09;;;11.53;100.00
5283;BME280;15376;48.540;9.268;2023-08-07T06:02:02;97553.84;;;11.58;100.00
5283;BME280;15376;48.540;9.268;2023-08-07T06:04:27;97546.09;;;11.63;100.00
5283;BME280;15376;48.540;9.268;2023-08-07T06:06:53;97530.47;;;11.53;100.00
5283;BME280;15376;48.540;9.268;2023-08-07T06:09:18;97546.56;;;11.66;100.00
5283;BME280;15376;48.540;9.268;2023-08-07T06:11:44;97548.84;;;11.69;100.00
5283;BME280;15376;48.540;9.268;2023-08-07T06:14:10;97560.22;;;11.78;100.00
5283;BME280;15376;48.540;9.268;2023-08-07T06:16:36;97554.41;;;11.75;100.00
5283;BME280;15376;48.540;9.268;2023-08-07T06:19:01;97560.69;;;11.82;100.00
5283;BME280;15376;48.540;9.268;2023-08-07T06:21:27;97552.06;;;11.80;100.00
5283;BME280;15376;48.540;9.268;2023-08-07T06:23:54;97566.13;;;11.95;100.00
5283;BME280;15376;48.540;9.268;2023-08-07T06:26:19;97569.94;;;12.07;100.00
5283;BME280;15376;48.540;9.268;2023-08-07T06:28:45;97546.53;;;12.02;100.00
5283;BME280;15376;48.540;9.268;2023-08-07T06:31:11;97550.41;;;12.21;100.00
5283;BME280;15376;48.540;9.268;2023-08-07T06:33:37;97575.50;;;12.33;100.00
5283;BME280;15376;48.540;9.268;2023-08-07T06:36:03;97578.81;;;12.35;100.00
5283;BME280;15376;48.540;9.268;2023-08-07T06:38:29;97550.84;;;12.25;100.00
5283;BME280;15376;48.540;9.268;2023-08-07T06:40:55;97569.63;;;12.38;100.00
5283;BME280;15376;48.540;9.268;2023-08-07T06:43:20;97565.78;;;12.47;100.00
5283;BME280;15376;48.540;9.268;2023-08-07T06:45:48;97577.25;;;12.48;100.00
5283;BME280;15376;48.540;9.268;2023-08-07T06:48:14;97565.97;;;12.46;100.00
5283;BME280;15376;48.540;9.268;2023-08-07T06:50:39;97563.41;;;12.59;100.00
5283;BME280;15376;48.540;9.268;2023-08-07T06:53:04;97552.38;;;12.62;100.00
5283;BME280;15376;48.540;9.268;2023-08-07T06:55:30;97551.44;;;12.76;100.00
5283;BME280;15376;48.540;9.268;2023-08-07T06:57:55;97568.19;;;12.98;100.00
5283;BME280;15376;48.540;9.268;2023-08-07T07:00:21;97555.53;;;13.07;100.00
5283;BME280;15376;48.540;9.268;2023-08-07T07:02:46;97570.19;;;13.24;100.00
5283;BME280;15376;48.540;9.268;2023-08-07T07:05:11;97565.09;;;13.29;100.00
5283;BME280;15376;48.540;9.268;2023-08-07T07:07:38;97544.97;;;13.26;100.00
5283;BME280;15376;48.540;9.268;2023-08-07T07:10:03;97538.03;;;13.32;100.00
5283;BME280;15376;48.540;9.268;2023-08-07T07:12:29;97567.06;;;13.61;100.00
5283;BME280;15376;48.540;9.268;2023-08-07T07:14:54;97578.59;;;13.68;100.00
5283;BME280;15376;48.540;9.268;2023-08-07T07:17:20;97564.84;;;13.72;100.00
5283;BME280;15376;48.540;9.268;2023-08-07T07:19:45;97546.38;;;13.77;100.00
5283;BME280;15376;48.540;9.268;2023-08-07T07:22:10;97547.03;;;13.85;100.00
5283;BME280;15376;48.540;9.268;2023-08-07T07:24:36;97570.66;;;13.95;100.00
5283;BME280;15376;48.540;9.268;2023-08-07T07:27:01;97562.66;;;13.95;100.00
5283;BME280;15376;48.540;9.268;2023-08-07T07:29:27;97571.91;;;13.99;100.00
5283;BME280;15376;48.540;9.268;2023-08-07T07:31:52;97572.50;;;14.01;100.00
5283;BME280;15376;48.540;9.268;2023-08-07T07:34:20;97550.13;;;13.89;100.00
5283;BME280;15376;48.540;9.268;2023-08-07T07:36:45;97588.16;;;14.17;100.00
5283;BME280;15376;48.540;9.268;2023-08-07T07:39:10;97569.88;;;14.14;100.00
5283;BME280;15376;48.540;9.268;2023-08-07T07:41:36;97578.09;;;14.19;100.00
5283;BME280;15376;48.540;9.268;2023-08-07T07:44:01;97572.13;;;14.17;100.00
5283;BME280;15376;48.540;9.268;2023-08-07T07:46:27;97574.19;;;14.15;100.00
5283;BME280;15376;48.540;9.268;2023-08-07T07:48:53;97578.13;;;14.46;100.00
5283;BME280;15376;48.540;9.268;2023-08-07T07:51:18;97576.91;;;14.55;100.00
5283;BME280;15376;48.540;9.268;2023-08-07T07:53:43;97573.19;;;14.82;100.00
5283;BME280;15376;48.540;9.268;2023-08-07T07:56:09;97587.16;;;14.84;100.00
5283;BME280;15376;48.540;9.268;2023-08-07T07:58:34;97587.38;;;14.96;100.00
5283;BME280;15376;48.540;9.268;2023-08-07T08:00:59;97576.84;;;15.14;100.00
5283;BME280;15376;48.540;9.268;2023-08-07T08:03:26;97561.00;;;15.13;100.00
5283;BME280;15376;48.540;9.268;2023-08-07T08:05:52;97589.56;;;15.25;100.00
5283;BME280;15376;48.540;9.268;2023-08-07T08:08:18;97595.31;;;15.29;100.00
5283;BME280;15376;48.540;9.268;2023-08-07T08:10:45;97561.22;;;15.18;100.00
5283;BME280;15376;48.540;9.268;2023-08-07T08:13:12;97568.50;;;15.49;100.00
5283;BME280;15376;48.540;9.268;2023-08-07T08:15:37;97583.88;;;15.66;96.90
5283;BME280;15376;48.540;9.268;2023-08-07T08:18:03;97571.44;;;15.34;95.94
5283;BME280;15376;48.540;9.268;2023-08-07T08:20:28;97598.06;;;15.74;95.01
5283;BME280;15376;48.540;9.268;2023-08-07T08:22:56;97598.53;;;15.64;91.15
5283;BME280;15376;48.540;9.268;2023-08-07T08:25:21;97604.00;;;15.89;91.95
5283;BME280;15376;48.540;9.268;2023-08-07T08:27:46;97604.94;;;16.01;92.26
5283;BME280;15376;48.540;9.268;2023-08-07T08:30:12;97605.38;;;15.98;92.98
5283;BME280;15376;48.540;9.268;2023-08-07T08:32:38;97602.38;;;15.81;92.73
5283;BME280;15376;48.540;9.268;2023-08-07T08:35:04;97608.81;;;15.60;92.79
5283;BME280;15376;48.540;9.268;2023-08-07T08:37:31;97582.31;;;15.39;92.73
5283;BME280;15376;48.540;9.268;2023-08-07T08:39:56;97591.88;;;15.80;89.83
5283;BME280;15376;48.540;9.268;2023-08-07T08:42:21;97598.06;;;15.80;86.62
5283;BME280;15376;48.540;9.268;2023-08-07T08:44:58;97605.03;;;15.88;82.80
5283;BME280;15376;48.540;9.268;2023-08-07T08:47:25;97586.56;;;15.66;85.13
5283;BME280;15376;48.540;9.268;2023-08-07T08:52:21;97580.81;;;15.63;84.46
5283;BME280;15376;48.540;9.268;2023-08-07T08:54:47;97576.28;;;15.63;86.52
5283;BME280;15376;48.540;9.268;2023-08-07T08:57:13;97600.91;;;15.85;82.70
5283;BME280;15376;48.540;9.268;2023-08-07T08:59:42;97607.47;;;15.96;81.87
5283;BME280;15376;48.540;9.268;2023-08-07T09:02:08;97595.19;;;16.13;81.11
5283;BME280;15376;48.540;9.268;2023-08-07T09:04:33;97613.78;;;16.01;79.79
5283;BME280;15376;48.540;9.268;2023-08-07T09:07:00;97606.97;;;16.06;78.16
5283;BME280;15376;48.540;9.268;2023-08-07T09:09:27;97606.78;;;16.00;77.63
5283;BME280;15376;48.540;9.268;2023-08-07T09:11:52;97596.31;;;16.30;78.27
5283;BME280;15376;48.540;9.268;2023-08-07T09:14:24;97617.97;;;16.60;76.26
5283;BME280;15376;48.540;9.268;2023-08-07T09:16:49;97607.81;;;16.69;76.11
5283;BME280;15376;48.540;9.268;2023-08-07T09:19:15;97598.63;;;16.52;77.44
5283;BME280;15376;48.540;9.268;2023-08-07T09:21:41;97616.63;;;16.76;74.46
5283;BME280;15376;48.540;9.268;2023-08-07T09:24:06;97594.25;;;16.64;72.25
5283;BME280;15376;48.540;9.268;2023-08-07T09:26:32;97611.41;;;16.81;75.71
5283;BME280;15376;48.540;9.268;2023-08-07T09:29:02;97620.41;;;16.93;73.33
5283;BME280;15376;48.540;9.268;2023-08-07T09:31:28;97611.97;;;17.15;75.41
5283;BME280;15376;48.540;9.268;2023-08-07T09:34:01;97626.59;;;17.37;75.30
5283;BME280;15376;48.540;9.268;2023-08-07T09:36:26;97617.41;;;17.45;73.32
5283;BME280;15376;48.540;9.268;2023-08-07T09:38:52;97615.72;;;17.50;72.80
5283;BME280;15376;48.540;9.268;2023-08-07T09:41:18;97614.69;;;17.70;71.29
5283;BME280;15376;48.540;9.268;2023-08-07T09:43:44;97638.03;;;17.87;69.66
5283;BME280;15376;48.540;9.268;2023-08-07T09:46:09;97620.44;;;16.87;71.58
5283;BME280;15376;48.540;9.268;2023-08-07T09:48:43;97622.53;;;17.28;72.26
5283;BME280;15376;48.540;9.268;2023-08-07T09:51:09;97626.13;;;17.40;71.75
5283;BME280;15376;48.540;9.268;2023-08-07T09:53:35;97636.84;;;17.65;70.05
5283;BME280;15376;48.540;9.268;2023-08-07T09:56:01;97642.63;;;17.44;70.32
5283;BME280;15376;48.540;9.268;2023-08-07T09:58:28;97647.50;;;17.72;71.76
5283;BME280;15376;48.540;9.268;2023-08-07T10:00:53;97635.78;;;18.32;69.62
5283;BME280;15376;48.540;9.268;2023-08-07T10:03:19;97644.66;;;18.63;69.97
5283;BME280;15376;48.540;9.268;2023-08-07T10:05:45;97640.09;;;18.33;68.40
5283;BME280;15376;48.540;9.268;2023-08-07T10:08:11;97646.72;;;17.64;66.93
5283;BME280;15376;48.540;9.268;2023-08-07T10:10:37;97634.66;;;17.55;63.92
5283;BME280;15376;48.540;9.268;2023-08-07T10:13:04;97651.31;;;17.82;64.31
5283;BME280;15376;48.540;9.268;2023-08-07T10:15:31;97661.09;;;17.95;64.23
5283;BME280;15376;48.540;9.268;2023-08-07T10:17:57;97650.38;;;18.07;64.51
5283;BME280;15376;48.540;9.268;2023-08-07T10:20:24;97627.31;;;17.62;67.07
5283;BME280;15376;48.540;9.268;2023-08-07T10:22:52;97675.38;;;18.07;65.62
5283;BME280;15376;48.540;9.268;2023-08-07T10:25:20;97655.88;;;17.82;64.57
5283;BME280;15376;48.540;9.268;2023-08-07T10:27:48;97669.53;;;17.80;64.84
5283;BME280;15376;48.540;9.268;2023-08-07T10:30:16;97659.38;;;18.30;66.07
5283;BME280;15376;48.540;9.268;2023-08-07T10:32:44;97639.84;;;19.18;60.88
5283;BME280;15376;48.540;9.268;2023-08-07T10:35:23;97646.44;;;18.69;61.78
5283;BME280;15376;48.540;9.268;2023-08-07T10:37:50;97668.88;;;18.63;62.63
5283;BME280;15376;48.540;9.268;2023-08-07T10:40:16;97670.22;;;18.24;62.79
5283;BME280;15376;48.540;9.268;2023-08-07T10:45:21;97648.47;;;19.67;59.04
5283;BME280;15376;48.540;9.268;2023-08-07T10:48:12;97670.22;;;21.03;54.65
5283;BME280;15376;48.540;9.268;2023-08-07T10:50:56;97666.31;;;20.08;55.22
5283;BME280;15376;48.540;9.268;2023-08-07T10:53:33;97658.59;;;18.83;58.16
5283;BME280;15376;48.540;9.268;2023-08-07T10:56:03;97672.63;;;18.44;59.44
5283;BME280;15376;48.540;9.268;2023-08-07T10:58:34;97664.41;;;18.09;63.23
5283;BME280;15376;48.540;9.268;2023-08-07T11:01:19;97669.22;;;17.70;64.32
5283;BME280;15376;48.540;9.268;2023-08-07T11:03:55;97671.31;;;19.64;59.45
5283;BME280;15376;48.540;9.268;2023-08-07T11:06:32;97670.25;;;20.17;56.05
5283;BME280;15376;48.540;9.268;2023-08-07T11:09:03;97647.06;;;21.40;54.44
5283;BME280;15376;48.540;9.268;2023-08-07T11:11:36;97676.78;;;21.57;52.35
5283;BME280;15376;48.540;9.268;2023-08-07T11:14:08;97657.03;;;22.98;52.65
5283;BME280;15376;48.540;9.268;2023-08-07T11:16:34;97667.72;;;23.88;50.01
5283;BME280;15376;48.540;9.268;2023-08-07T11:19:00;97639.06;;;22.59;51.02
5283;BME280;15376;48.540;9.268;2023-08-07T11:21:26;97650.91;;;20.94;51.50
5283;BME280;15376;48.540;9.268;2023-08-07T11:23:51;97657.72;;;19.83;53.12
5283;BME280;15376;48.540;9.268;2023-08-07T11:26:17;97676.00;;;19.34;55.00
5283;BME280;15376;48.540;9.268;2023-08-07T11:28:47;97657.22;;;18.51;56.92
5283;BME280;15376;48.540;9.268;2023-08-07T11:31:12;97650.28;;;18.61;59.18
5283;BME280;15376;48.540;9.268;2023-08-07T11:33:37;97653.53;;;19.52;57.15
5283;BME280;15376;48.540;9.268;2023-08-07T11:36:03;97654.19;;;20.22;57.56
5283;BME280;15376;48.540;9.268;2023-08-07T11:38:42;97674.81;;;19.65;56.83
5283;BME280;15376;48.540;9.268;2023-08-07T11:41:08;97669.56;;;19.47;58.80
5283;BME280;15376;48.540;9.268;2023-08-07T11:43:34;97659.59;;;19.01;59.11
5283;BME280;15376;48.540;9.268;2023-08-07T11:46:05;97674.38;;;17.90;61.34
5283;BME280;15376;48.540;9.268;2023-08-07T11:48:32;97672.97;;;17.62;63.29
5283;BME280;15376;48.540;9.268;2023-08-07T11:50:58;97664.59;;;17.34;65.93
5283;BME280;15376;48.540;9.268;2023-08-07T11:53:25;97686.28;;;17.57;64.19
5283;BME280;15376;48.540;9.268;2023-08-07T11:55:57;97647.03;;;17.38;63.50
5283;BME280;15376;48.540;9.268;2023-08-07T11:58:26;97671.88;;;17.52;64.19
5283;BME280;15376;48.540;9.268;2023-08-07T12:00:53;97663.84;;;17.27;64.71
5283;BME280;15376;48.540;9.268;2023-08-07T12:03:36;97669.59;;;17.30;65.85
5283;BME280;15376;48.540;9.268;2023-08-07T12:06:06;97657.81;;;17.13;66.19
5283;BME280;15376;48.540;9.268;2023-08-07T12:08:36;97680.56;;;17.29;65.63
5283;BME280;15376;48.540;9.268;2023-08-07T12:11:03;97649.69;;;16.95;68.36
5283;BME280;15376;48.540;9.268;2023-08-07T12:13:29;97678.50;;;17.06;69.00
5283;BME280;15376;48.540;9.268;2023-08-07T12:15:57;97688.94;;;16.89;68.28
5283;BME280;15376;48.540;9.268;2023-08-07T12:18:23;97662.53;;;16.55;70.15
5283;BME280;15376;48.540;9.268;2023-08-07T12:21:01;97697.78;;;16.65;69.43
5283;BME280;15376;48.540;9.268;2023-08-07T12:23:27;97666.00;;;16.30;67.76
5283;BME280;15376;48.540;9.268;2023-08-07T12:25:53;97658.28;;;16.09;69.34
5283;BME280;15376;48.540;9.268;2023-08-07T12:28:19;97677.19;;;16.21;68.56
5283;BME280;15376;48.540;9.268;2023-08-07T12:30:46;97686.09;;;16.08;69.15
5283;BME280;15376;48.540;9.268;2023-08-07T12:33:14;97710.63;;;16.05;71.21
5283;BME280;15376;48.540;9.268;2023-08-07T12:35:40;97711.94;;;15.96;71.51
5283;BME280;15376;48.540;9.268;2023-08-07T12:38:07;97716.69;;;15.87;74.15
5283;BME280;15376;48.540;9.268;2023-08-07T12:40:32;97707.25;;;15.72;74.63
5283;BME280;15376;48.540;9.268;2023-08-07T12:42:58;97663.22;;;15.41;77.98
5283;BME280;15376;48.540;9.268;2023-08-07T12:45:24;97668.78;;;15.46;76.74
5283;BME280;15376;48.540;9.268;2023-08-07T12:47:49;97692.25;;;15.57;78.30
5283;BME280;15376;48.540;9.268;2023-08-07T12:50:15;97695.31;;;15.67;76.38
5283;BME280;15376;48.540;9.268;2023-08-07T12:52:40;97709.06;;;15.84;74.49
5283;BME280;15376;48.540;9.268;2023-08-07T12:55:06;97712.53;;;15.98;75.45
5283;BME280;15376;48.540;9.268;2023-08-07T12:57:32;97706.16;;;15.99;76.44
5283;BME280;15376;48.540;9.268;2023-08-07T12:59:57;97661.66;;;15.98;73.50
5283;BME280;15376;48.540;9.268;2023-08-07T13:02:23;97682.38;;;16.09;74.16
5283;BME280;15376;48.540;9.268;2023-08-07T13:04:48;97693.75;;;16.43;73.82
5283;BME280;15376;48.540;9.268;2023-08-07T13:07:14;97708.56;;;16.52;73.37
5283;BME280;15376;48.540;9.268;2023-08-07T13:09:39;97688.19;;;16.44;74.28
5283;BME280;15376;48.540;9.268;2023-08-07T13:12:04;97689.28;;;16.37;73.80